Time;durP1;ratioP1;P1;durP2;ratioP2;P2;SDS_P1;SDS_P2;PMS_P1;PMS_P2;Temp;Humidity;BMP_temperature;BMP_pressure;BME280_temperature;BME280_humidity;BME280_pressure;Samples;Min_cycle;Max_cycle;Signal;HPM_P1;HPM_P2
2023/07/07 00:02:14;;;;;;;7.97;4.38;;;;;;;;;;5056845;28;20453;-59
2023/07/07 00:04:40;;;;;;;7.35;4.65;;;;;;;;;;5050893;28;20465;-59
2023/07/07 00:07:05;;;;;;;9.63;4.72;;;;;;;;;;5033773;28;20025;-60
2023/07/07 00:09:31;;;;;;;7.53;4.50;;;;;;;;;;5068669;28;20035;-60
2023/07/07 00:11:57;;;;;;;7.38;4.85;;;;;;;;;;5071819;28;20044;-59
2023/07/07 00:14:23;;;;;;;10.05;4.55;;;;;;;;;;5071243;28;20029;-59
2023/07/07 00:16:48;;;;;;;8.73;5.10;;;;;;;;;;5072039;28;20035;-60
2023/07/07 00:19:14;;;;;;;8.82;4.72;;;;;;;;;;5070002;28;20028;-60
2023/07/07 00:21:40;;;;;;;8.35;4.90;;;;;;;;;;5065951;28;20044;-60
2023/07/07 00:24:07;;;;;;;8.13;4.68;;;;;;;;;;5043625;28;20123;-60
2023/07/07 00:26:34;;;;;;;9.23;5.10;;;;;;;;;;5069261;28;20659;-60
2023/07/07 00:28:59;;;;;;;8.23;4.88;;;;;;;;;;5071852;28;20032;-59
2023/07/07 00:31:26;;;;;;;8.00;4.95;;;;;;;;;;5070965;28;20114;-59
2023/07/07 00:33:51;;;;;;;8.23;4.90;;;;;;;;;;5071534;28;20071;-59
2023/07/07 00:36:17;;;;;;;8.60;5.00;;;;;;;;;;5070875;28;20382;-60
2023/07/07 00:38:42;;;;;;;10.07;5.18;;;;;;;;;;5065601;28;20039;-59
2023/07/07 00:41:09;;;;;;;7.13;4.60;;;;;;;;;;5052685;28;20107;-59
2023/07/07 00:43:35;;;;;;;7.05;4.50;;;;;;;;;;5050880;28;20054;-59
2023/07/07 00:46:02;;;;;;;8.38;4.50;;;;;;;;;;5051693;28;20061;-60
2023/07/07 00:48:33;;;;;;;8.57;5.15;;;;;;;;;;5050523;28;20532;-61
2023/07/07 00:51:00;;;;;;;;;;;;;;;;;;5051764;28;20473;-58
2023/07/07 00:53:26;;;;;;;8.77;4.60;;;;;;;;;;5066441;28;19947;-60
2023/07/07 00:55:56;;;;;;;7.97;5.00;;;;;;;;;;5063188;28;20116;-59
2023/07/07 00:58:23;;;;;;;9.95;5.63;;;;;;;;;;5030384;28;20441;-60
2023/07/07 01:00:54;;;;;;;8.60;5.30;;;;;;;;;;5049512;28;20469;-59
2023/07/07 01:03:25;;;;;;;7.78;5.10;;;;;;;;;;5070468;28;20381;-59
2023/07/07 01:05:53;;;;;;;9.57;5.38;;;;;;;;;;5071562;28;20115;-59
2023/07/07 01:08:19;;;;;;;10.55;5.38;;;;;;;;;;5049707;28;20500;-60
2023/07/07 01:10:45;;;;;;;9.02;5.10;;;;;;;;;;5073884;28;20028;-60
2023/07/07 01:13:10;;;;;;;7.40;5.28;;;;;;;;;;5061659;28;20056;-59
2023/07/07 01:15:47;;;;;;;10.80;5.47;;;;;;;;;;5034887;28;20021;-60
2023/07/07 01:18:20;;;;;;;8.15;5.60;;;;;;;;;;5035369;28;20025;-59
2023/07/07 01:21:01;;;;;;;9.60;6.05;;;;;;;;;;5066657;28;20099;-59
2023/07/07 01:23:44;;;;;;;10.35;6.07;;;;;;;;;;5074484;28;20067;-61
2023/07/07 01:26:26;;;;;;;9.40;6.28;;;;;;;;;;5075333;28;20086;-59
2023/07/07 01:29:15;;;;;;;10.55;6.88;;;;;;;;;;5073144;28;20041;-59
2023/07/07 01:31:50;;;;;;;10.00;6.72;;;;;;;;;;5036396;28;20033;-59
2023/07/07 01:34:16;;;;;;;10.20;6.70;;;;;;;;;;5034846;28;20029;-60
2023/07/07 01:36:42;;;;;;;9.77;6.30;;;;;;;;;;5034606;28;20116;-59
2023/07/07 01:39:11;;;;;;;8.15;5.85;;;;;;;;;;5034868;28;20116;-60
2023/07/07 01:41:43;;;;;;;9.43;6.03;;;;;;;;;;5039765;28;20333;-60
2023/07/07 01:44:13;;;;;;;8.50;5.50;;;;;;;;;;5061689;28;20476;-59
2023/07/07 01:46:52;;;;;;;9.70;5.88;;;;;;;;;;5066085;28;20082;-59
2023/07/07 01:49:24;;;;;;;9.68;5.95;;;;;;;;;;5039370;28;20116;-59
2023/07/07 01:51:49;;;;;;;10.93;5.53;;;;;;;;;;5062384;28;20078;-58
2023/07/07 01:54:16;;;;;;;8.93;5.88;;;;;;;;;;5054420;28;20033;-60
2023/07/07 01:56:45;;;;;;;7.80;5.28;;;;;;;;;;5053601;28;20091;-58
2023/07/07 01:59:11;;;;;;;8.30;5.15;;;;;;;;;;5054303;28;20437;-59
2023/07/07 02:01:37;;;;;;;9.00;5.18;;;;;;;;;;5052485;28;20033;-60
2023/07/07 02:04:02;;;;;;;7.82;4.65;;;;;;;;;;5052041;28;20387;-60
2023/07/07 02:06:28;;;;;;;10.10;4.88;;;;;;;;;;5073621;28;20116;-60
2023/07/07 02:08:53;;;;;;;10.75;5.00;;;;;;;;;;5069949;28;20408;-60
2023/07/07 02:11:18;;;;;;;7.22;4.78;;;;;;;;;;5073810;28;20422;-62
2023/07/07 02:13:44;;;;;;;8.93;4.40;;;;;;;;;;5064319;28;20043;-60
2023/07/07 02:16:09;;;;;;;6.63;4.13;;;;;;;;;;5074388;28;20052;-59
2023/07/07 02:18:37;;;;;;;9.93;4.35;;;;;;;;;;5073472;28;20040;-59
2023/07/07 02:21:05;;;;;;;6.63;4.40;;;;;;;;;;5057171;28;20044;-58
2023/07/07 02:23:30;;;;;;;7.40;3.90;;;;;;;;;;5033248;28;20022;-60
2023/07/07 02:25:56;;;;;;;9.90;4.18;;;;;;;;;;5034648;28;20033;-59
2023/07/07 02:28:21;;;;;;;7.38;4.15;;;;;;;;;;5033417;28;20371;-61
2023/07/07 02:30:47;;;;;;;6.43;4.20;;;;;;;;;;5033558;28;20030;-59
2023/07/07 02:33:12;;;;;;;7.22;4.18;;;;;;;;;;5034187;28;20036;-59
2023/07/07 02:35:39;;;;;;;6.95;4.25;;;;;;;;;;5036919;28;20255;-59
2023/07/07 02:38:04;;;;;;;6.68;3.90;;;;;;;;;;5061959;28;20111;-58
2023/07/07 02:40:30;;;;;;;5.68;4.03;;;;;;;;;;5072658;28;20112;-59
2023/07/07 02:42:55;;;;;;;6.88;4.07;;;;;;;;;;5055126;28;20493;-59
2023/07/07 02:45:21;;;;;;;8.07;4.13;;;;;;;;;;5053103;28;20060;-62
2023/07/07 02:47:46;;;;;;;6.70;4.40;;;;;;;;;;5053175;28;20031;-60
2023/07/07 02:50:11;;;;;;;6.88;3.90;;;;;;;;;;5059644;28;20037;-59
2023/07/07 02:52:37;;;;;;;7.68;4.10;;;;;;;;;;5072697;28;20378;-60
2023/07/07 02:55:02;;;;;;;6.75;3.85;;;;;;;;;;5061742;28;20096;-59
2023/07/07 02:57:28;;;;;;;7.25;3.83;;;;;;;;;;5032752;28;20463;-59
2023/07/07 02:59:53;;;;;;;7.72;3.83;;;;;;;;;;5033401;28;20021;-59
2023/07/07 03:02:19;;;;;;;5.25;3.58;;;;;;;;;;5033202;28;20532;-59
2023/07/07 03:04:47;;;;;;;7.13;3.47;;;;;;;;;;5059709;28;20067;-60
2023/07/07 03:07:13;;;;;;;7.97;3.78;;;;;;;;;;5071673;28;20476;-59
2023/07/07 03:09:38;;;;;;;6.90;3.70;;;;;;;;;;5069395;28;20036;-59
2023/07/07 03:12:04;;;;;;;8.10;4.60;;;;;;;;;;5056542;28;20052;-59
2023/07/07 03:14:30;;;;;;;5.88;3.53;;;;;;;;;;5032492;28;20076;-61
2023/07/07 03:16:56;;;;;;;7.10;4.47;;;;;;;;;;5033301;28;20029;-59
2023/07/07 03:19:22;;;;;;;8.20;4.03;;;;;;;;;;5052917;28;20051;-62
2023/07/07 03:21:47;;;;;;;6.40;3.88;;;;;;;;;;5072280;28;20025;-60
2023/07/07 03:24:14;;;;;;;6.38;4.35;;;;;;;;;;5071702;28;20126;-61
2023/07/07 03:26:40;;;;;;;7.32;4.30;;;;;;;;;;5069899;28;20025;-60
2023/07/07 03:29:05;;;;;;;8.77;4.10;;;;;;;;;;5060636;28;20036;-59
2023/07/07 03:31:31;;;;;;;7.43;4.40;;;;;;;;;;5031822;28;20022;-59
2023/07/07 03:34:01;;;;;;;7.93;4.40;;;;;;;;;;5042119;28;20036;-59
2023/07/07 03:36:29;;;;;;;8.67;4.70;;;;;;;;;;5071646;28;20512;-60
2023/07/07 03:38:55;;;;;;;9.73;4.80;;;;;;;;;;5069887;28;20037;-61
2023/07/07 03:41:23;;;;;;;9.25;4.88;;;;;;;;;;5072706;28;20028;-59
2023/07/07 03:43:49;;;;;;;7.85;4.45;;;;;;;;;;5062173;28;20033;-60
2023/07/07 03:46:17;;;;;;;7.57;4.20;;;;;;;;;;5051606;28;20035;-59
2023/07/07 03:48:43;;;;;;;9.63;5.00;;;;;;;;;;5050507;28;20075;-59
2023/07/07 03:51:10;;;;;;;6.68;4.20;;;;;;;;;;5051535;28;20435;-60
2023/07/07 03:53:36;;;;;;;7.95;4.10;;;;;;;;;;5071582;28;20039;-59
2023/07/07 03:56:02;;;;;;;6.22;3.78;;;;;;;;;;5072439;28;20401;-59
2023/07/07 03:58:28;;;;;;;8.25;4.13;;;;;;;;;;5071335;28;20465;-60
2023/07/07 04:00:53;;;;;;;6.47;3.92;;;;;;;;;;5072189;28;20081;-60
2023/07/07 04:03:20;;;;;;;7.25;4.10;;;;;;;;;;5064817;28;20028;-59
2023/07/07 04:05:47;;;;;;;7.40;3.95;;;;;;;;;;5070404;28;20115;-59
2023/07/07 04:08:13;;;;;;;7.32;3.90;;;;;;;;;;5072271;28;20036;-59
2023/07/07 04:10:41;;;;;;;6.90;3.67;;;;;;;;;;5071125;28;20035;-59
2023/07/07 04:13:07;;;;;;;5.78;3.75;;;;;;;;;;5061214;28;20178;-59
2023/07/07 04:15:33;;;;;;;6.75;3.70;;;;;;;;;;5071360;28;20028;-59
2023/07/07 04:17:59;;;;;;;7.20;3.58;;;;;;;;;;5070928;28;20051;-60
2023/07/07 04:20:25;;;;;;;7.47;3.65;;;;;;;;;;5055309;28;20045;-59
2023/07/07 04:22:50;;;;;;;6.18;3.70;;;;;;;;;;5063635;28;20078;-59
2023/07/07 04:25:17;;;;;;;9.05;3.90;;;;;;;;;;5070955;28;20024;-59
2023/07/07 04:27:44;;;;;;;7.13;3.38;;;;;;;;;;5071149;28;20040;-60
2023/07/07 04:30:11;;;;;;;5.47;3.63;;;;;;;;;;5071713;28;20032;-60
2023/07/07 04:32:37;;;;;;;7.30;3.40;;;;;;;;;;5066415;28;20094;-60
2023/07/07 04:35:04;;;;;;;6.88;4.05;;;;;;;;;;5071908;28;20024;-59
2023/07/07 04:37:30;;;;;;;7.78;4.20;;;;;;;;;;5052138;28;20041;-60
2023/07/07 04:39:55;;;;;;;6.05;4.00;;;;;;;;;;5063452;28;20038;-59
2023/07/07 04:42:21;;;;;;;7.88;4.30;;;;;;;;;;5071725;28;20120;-59
2023/07/07 04:44:46;;;;;;;6.90;3.90;;;;;;;;;;5054252;28;20079;-60
2023/07/07 04:47:12;;;;;;;7.30;3.97;;;;;;;;;;5050513;28;20037;-60
2023/07/07 04:49:38;;;;;;;6.63;3.80;;;;;;;;;;5049733;28;20075;-60
2023/07/07 04:52:03;;;;;;;10.48;3.63;;;;;;;;;;5059843;28;20052;-59
2023/07/07 04:54:29;;;;;;;8.30;3.78;;;;;;;;;;5051007;28;20084;-60
2023/07/07 04:56:54;;;;;;;10.55;3.88;;;;;;;;;;5031725;28;20029;-59
2023/07/07 04:59:20;;;;;;;8.68;3.90;;;;;;;;;;5041813;28;20036;-60
2023/07/07 05:01:46;;;;;;;9.07;4.18;;;;;;;;;;5069634;28;20029;-59
2023/07/07 05:04:12;;;;;;;7.60;4.10;;;;;;;;;;5071853;28;20192;-59
2023/07/07 05:06:38;;;;;;;8.30;4.15;;;;;;;;;;5070738;28;20477;-60
2023/07/07 05:09:09;;;;;;;9.15;3.92;;;;;;;;;;5071650;28;20028;-60
2023/07/07 05:11:35;;;;;;;;;;;;;;;;;;5050589;28;20450;-58
2023/07/07 05:14:01;;;;;;;6.45;3.70;;;;;;;;;;5031677;28;19927;-59
2023/07/07 05:16:35;;;;;;;8.23;3.80;;;;;;;;;;5053794;28;20029;-59
2023/07/07 05:19:01;;;;;;;9.38;3.70;;;;;;;;;;5066774;28;20032;-59
2023/07/07 05:21:26;;;;;;;6.72;3.70;;;;;;;;;;5046674;28;20036;-59
2023/07/07 05:23:53;;;;;;;7.35;3.95;;;;;;;;;;5044578;28;20794;-59
2023/07/07 05:26:19;;;;;;;9.43;4.00;;;;;;;;;;5070400;28;20035;-59
2023/07/07 05:28:45;;;;;;;6.10;3.55;;;;;;;;;;5055948;28;20033;-60
2023/07/07 05:31:10;;;;;;;5.65;3.50;;;;;;;;;;5068807;28;20464;-60
2023/07/07 05:33:38;;;;;;;5.50;3.60;;;;;;;;;;5055515;28;20033;-60
2023/07/07 05:36:05;;;;;;;6.15;3.47;;;;;;;;;;5051183;28;20040;-61
2023/07/07 05:38:31;;;;;;;7.25;3.97;;;;;;;;;;5050916;28;20068;-61
2023/07/07 05:40:57;;;;;;;8.88;4.10;;;;;;;;;;5050670;28;20025;-59
2023/07/07 05:43:25;;;;;;;6.28;3.78;;;;;;;;;;5050485;28;20045;-59
2023/07/07 05:45:59;;;;;;;7.63;3.80;;;;;;;;;;5048597;28;20492;-60
2023/07/07 05:48:24;;;;;;;6.35;3.47;;;;;;;;;;5059535;28;20116;-60
2023/07/07 05:50:51;;;;;;;9.32;3.85;;;;;;;;;;5070144;28;20951;-60
2023/07/07 05:53:17;;;;;;;6.65;3.65;;;;;;;;;;5055211;28;20029;-58
2023/07/07 05:55:46;;;;;;;6.43;3.30;;;;;;;;;;5050048;28;20051;-59
2023/07/07 05:58:13;;;;;;;8.52;3.60;;;;;;;;;;5058098;28;20036;-59
2023/07/07 06:00:38;;;;;;;8.35;3.22;;;;;;;;;;5066741;28;20081;-61
2023/07/07 06:03:04;;;;;;;6.25;3.25;;;;;;;;;;5057811;28;20435;-63
2023/07/07 06:05:29;;;;;;;8.68;3.67;;;;;;;;;;5053129;28;20037;-62
2023/07/07 06:07:55;;;;;;;8.43;3.50;;;;;;;;;;5053499;28;20420;-62
2023/07/07 06:10:24;;;;;;;4.90;3.20;;;;;;;;;;5054461;28;20060;-63
2023/07/07 06:12:50;;;;;;;5.95;3.17;;;;;;;;;;5052904;28;20040;-61
2023/07/07 06:15:16;;;;;;;9.15;3.05;;;;;;;;;;5052697;28;20087;-62
2023/07/07 06:17:41;;;;;;;6.45;3.35;;;;;;;;;;5053531;28;20036;-62
2023/07/07 06:20:07;;;;;;;10.45;3.40;;;;;;;;;;5053288;28;20037;-62
2023/07/07 06:22:33;;;;;;;6.50;2.90;;;;;;;;;;5054249;28;20029;-64
2023/07/07 06:25:00;;;;;;;8.65;3.70;;;;;;;;;;5053374;28;20025;-62
2023/07/07 06:27:26;;;;;;;7.60;3.33;;;;;;;;;;5068852;28;20028;-63
2023/07/07 06:29:52;;;;;;;8.15;3.35;;;;;;;;;;5053038;28;20033;-62
2023/07/07 06:32:17;;;;;;;6.80;3.30;;;;;;;;;;5054982;28;20385;-62
2023/07/07 06:34:42;;;;;;;6.75;3.20;;;;;;;;;;5054992;28;20393;-63
2023/07/07 06:37:08;;;;;;;8.95;3.28;;;;;;;;;;5032797;28;20133;-63
2023/07/07 06:39:33;;;;;;;8.70;3.20;;;;;;;;;;5053180;28;20037;-67
2023/07/07 06:42:00;;;;;;;8.40;3.38;;;;;;;;;;5053348;28;20045;-62
2023/07/07 06:44:25;;;;;;;6.68;3.10;;;;;;;;;;5053693;28;20112;-62
2023/07/07 06:46:51;;;;;;;7.22;2.80;;;;;;;;;;5052959;28;20115;-62
2023/07/07 06:49:16;;;;;;;7.72;3.20;;;;;;;;;;5035855;28;20386;-62
2023/07/07 06:51:42;;;;;;;5.90;3.22;;;;;;;;;;5036234;28;20421;-64
2023/07/07 06:54:07;;;;;;;7.95;3.25;;;;;;;;;;5040362;28;20359;-63
2023/07/07 06:56:33;;;;;;;4.47;2.78;;;;;;;;;;5032921;28;20033;-61
2023/07/07 06:58:58;;;;;;;7.63;2.60;;;;;;;;;;5033136;28;20034;-62
2023/07/07 07:01:23;;;;;;;7.72;2.70;;;;;;;;;;5033662;28;20030;-62
2023/07/07 07:03:49;;;;;;;7.75;2.80;;;;;;;;;;5033577;28;20034;-62
2023/07/07 07:06:15;;;;;;;8.23;2.60;;;;;;;;;;5033449;28;20467;-61
2023/07/07 07:08:40;;;;;;;7.07;3.10;;;;;;;;;;5045480;28;20120;-62
2023/07/07 07:11:06;;;;;;;10.50;3.00;;;;;;;;;;5070457;28;20051;-62
2023/07/07 07:13:32;;;;;;;7.85;2.50;;;;;;;;;;5039148;28;20526;-61
2023/07/07 07:15:58;;;;;;;5.20;2.33;;;;;;;;;;5047664;28;20064;-61
2023/07/07 07:18:23;;;;;;;6.57;2.60;;;;;;;;;;5043125;28;20068;-62
2023/07/07 07:20:50;;;;;;;5.90;2.50;;;;;;;;;;5052390;28;20035;-60
2023/07/07 07:23:16;;;;;;;6.22;2.50;;;;;;;;;;5051958;28;20487;-62
2023/07/07 07:25:44;;;;;;;6.43;2.60;;;;;;;;;;5052094;28;20037;-63
2023/07/07 07:28:13;;;;;;;4.28;2.13;;;;;;;;;;5049718;28;20067;-62
2023/07/07 07:30:39;;;;;;;4.82;2.10;;;;;;;;;;5051975;28;20032;-66
2023/07/07 07:33:06;;;;;;;3.88;2.15;;;;;;;;;;5049302;28;20070;-63
2023/07/07 07:35:32;;;;;;;4.60;2.15;;;;;;;;;;5072574;28;20029;-64
2023/07/07 07:37:57;;;;;;;5.70;2.20;;;;;;;;;;5069639;28;20106;-63
2023/07/07 07:40:23;;;;;;;4.47;2.13;;;;;;;;;;5052853;28;20033;-63
2023/07/07 07:42:52;;;;;;;5.03;2.33;;;;;;;;;;5051440;28;20087;-63
2023/07/07 07:45:20;;;;;;;5.63;2.30;;;;;;;;;;5053748;28;20109;-63
2023/07/07 07:47:46;;;;;;;5.57;2.42;;;;;;;;;;5047683;28;20052;-63
2023/07/07 07:50:14;;;;;;;4.10;2.10;;;;;;;;;;5051702;28;20458;-62
2023/07/07 07:52:40;;;;;;;5.40;2.33;;;;;;;;;;5051645;28;20175;-64
2023/07/07 07:55:05;;;;;;;4.88;2.30;;;;;;;;;;5048703;28;20552;-62
2023/07/07 07:57:31;;;;;;;4.55;2.20;;;;;;;;;;5048804;28;20104;-62
2023/07/07 07:59:56;;;;;;;6.18;2.45;;;;;;;;;;5046300;28;20109;-62
2023/07/07 08:02:22;;;;;;;3.55;2.30;;;;;;;;;;5046018;28;20032;-62
2023/07/07 08:04:48;;;;;;;4.03;2.30;;;;;;;;;;5058045;28;20063;-60
2023/07/07 08:07:13;;;;;;;4.75;2.15;;;;;;;;;;5069814;28;20117;-59
2023/07/07 08:09:38;;;;;;;8.05;2.22;;;;;;;;;;5053598;28;20381;-66
2023/07/07 08:12:04;;;;;;;6.55;2.10;;;;;;;;;;5051942;28;20040;-60
2023/07/07 08:14:32;;;;;;;6.53;2.50;;;;;;;;;;5052285;28;20082;-62
2023/07/07 08:17:04;;;;;;;5.45;2.50;;;;;;;;;;5051160;28;20115;-63
2023/07/07 08:19:31;;;;;;;4.95;2.47;;;;;;;;;;5050410;28;20039;-63
2023/07/07 08:21:57;;;;;;;7.50;2.60;;;;;;;;;;5059453;28;20510;-63
2023/07/07 08:24:24;;;;;;;4.15;2.10;;;;;;;;;;5059820;28;20025;-64
2023/07/07 08:26:49;;;;;;;4.45;2.28;;;;;;;;;;5051032;28;20119;-64
2023/07/07 08:29:15;;;;;;;8.85;2.30;;;;;;;;;;5051698;28;20211;-63
2023/07/07 08:31:40;;;;;;;5.45;2.03;;;;;;;;;;5050709;28;20063;-64
2023/07/07 08:34:06;;;;;;;4.63;2.10;;;;;;;;;;5051622;28;20056;-64
2023/07/07 08:36:31;;;;;;;5.32;2.20;;;;;;;;;;5039935;28;20045;-64
2023/07/07 08:39:33;;;;;;;10.43;2.70;;;;;;;;;;5037541;28;20067;-62
2023/07/07 08:42:19;;;;;;;8.00;2.25;;;;;;;;;;5028311;28;20207;-62
2023/07/07 08:44:44;;;;;;;4.95;2.10;;;;;;;;;;5037580;28;20041;-62
2023/07/07 08:47:25;;;;;;;6.50;2.13;;;;;;;;;;5050986;28;20051;-63
2023/07/07 08:49:51;;;;;;;4.10;2.17;;;;;;;;;;5045628;28;20095;-63
2023/07/07 08:52:41;;;;;;;5.00;2.20;;;;;;;;;;5051593;28;20033;-59
2023/07/07 08:55:43;;;;;;;5.15;1.98;;;;;;;;;;5043831;28;20071;-61
2023/07/07 08:58:09;;;;;;;6.88;2.10;;;;;;;;;;5044093;28;20083;-64
2023/07/07 09:01:02;;;;;;;5.35;2.05;;;;;;;;;;5066160;28;20481;-62
2023/07/07 09:03:49;;;;;;;5.22;2.10;;;;;;;;;;5068225;28;20099;-65
2023/07/07 09:06:26;;;;;;;6.22;2.08;;;;;;;;;;5051710;28;20033;-64
2023/07/07 09:09:04;;;;;;;8.52;2.10;;;;;;;;;;5050404;28;20033;-63
2023/07/07 09:11:32;;;;;;;4.50;2.40;;;;;;;;;;5059839;28;20115;-62
2023/07/07 09:13:59;;;;;;;3.80;1.90;;;;;;;;;;5055896;28;20332;-62
2023/07/07 09:16:29;;;;;;;5.60;2.00;;;;;;;;;;5051457;28;20099;-62
2023/07/07 09:19:00;;;;;;;4.15;2.03;;;;;;;;;;5050652;28;20115;-63
2023/07/07 09:21:59;;;;;;;6.50;2.53;;;;;;;;;;5044359;28;20424;-64
2023/07/07 09:24:30;;;;;;;5.22;2.17;;;;;;;;;;5031183;28;20037;-60
2023/07/07 09:27:03;;;;;;;8.15;2.17;;;;;;;;;;5059997;28;20106;-63
2023/07/07 09:29:30;;;;;;;4.20;2.35;;;;;;;;;;5065626;28;20032;-62
2023/07/07 09:31:58;;;;;;;4.55;2.28;;;;;;;;;;5071484;28;20033;-62
2023/07/07 09:34:24;;;;;;;3.60;1.90;;;;;;;;;;5067546;28;20029;-62
2023/07/07 09:37:01;;;;;;;7.43;2.03;;;;;;;;;;5056887;28;20112;-62
2023/07/07 09:39:39;;;;;;;4.45;2.10;;;;;;;;;;5042028;28;20080;-64
2023/07/07 09:43:06;;;;;;;5.30;2.10;;;;;;;;;;5055006;28;20044;-62
2023/07/07 09:45:42;;;;;;;5.65;2.00;;;;;;;;;;4994870;28;20046;-63
2023/07/07 09:48:27;;;;;;;12.43;2.20;;;;;;;;;;4993403;28;20376;-62
2023/07/07 09:51:33;;;;;;;4.05;2.33;;;;;;;;;;5038825;28;20137;-62
2023/07/07 09:53:59;;;;;;;3.80;2.03;;;;;;;;;;5059055;28;20873;-63
2023/07/07 09:56:33;;;;;;;8.27;2.30;;;;;;;;;;5054752;28;20021;-61
2023/07/07 09:59:06;;;;;;;4.00;2.00;;;;;;;;;;5061267;28;20043;-63
2023/07/07 10:01:37;;;;;;;5.32;2.20;;;;;;;;;;5062488;28;20124;-63
2023/07/07 10:04:08;;;;;;;6.18;2.45;;;;;;;;;;5062692;28;20029;-62
2023/07/07 10:06:41;;;;;;;6.85;2.30;;;;;;;;;;5054495;28;20059;-63
2023/07/07 10:09:12;;;;;;;4.97;1.92;;;;;;;;;;5054409;28;20541;-65
2023/07/07 10:11:40;;;;;;;4.93;2.20;;;;;;;;;;5052930;28;20044;-65
2023/07/07 10:14:07;;;;;;;5.32;2.15;;;;;;;;;;5070972;28;20074;-61
2023/07/07 10:16:32;;;;;;;2.58;1.95;;;;;;;;;;5054153;28;20400;-61
2023/07/07 10:19:09;;;;;;;4.63;2.10;;;;;;;;;;5051514;28;20032;-60
2023/07/07 10:21:35;;;;;;;4.03;2.17;;;;;;;;;;5074444;28;20579;-60
2023/07/07 10:24:01;;;;;;;4.43;2.28;;;;;;;;;;5059263;28;20026;-60
2023/07/07 10:26:27;;;;;;;4.53;2.10;;;;;;;;;;5044572;28;20037;-60
2023/07/07 10:28:57;;;;;;;5.97;2.13;;;;;;;;;;5053418;28;20032;-60
2023/07/07 10:31:24;;;;;;;5.28;2.15;;;;;;;;;;5054069;28;20703;-60
2023/07/07 10:33:55;;;;;;;6.82;2.35;;;;;;;;;;5050151;28;20048;-60
2023/07/07 10:36:29;;;;;;;5.25;2.00;;;;;;;;;;5072321;28;20106;-60
2023/07/07 10:38:56;;;;;;;5.75;2.17;;;;;;;;;;5072218;28;20044;-60
2023/07/07 10:41:26;;;;;;;5.38;2.40;;;;;;;;;;5052355;28;20382;-60
2023/07/07 10:43:53;;;;;;;3.10;2.13;;;;;;;;;;5044606;28;20092;-62
2023/07/07 10:46:18;;;;;;;4.53;2.30;;;;;;;;;;5071020;28;20048;-61
2023/07/07 10:48:44;;;;;;;4.22;2.38;;;;;;;;;;5071287;28;20035;-61
2023/07/07 10:51:37;;;;;;;4.75;2.00;;;;;;;;;;5052196;28;20056;-61
2023/07/07 10:54:18;;;;;;;3.63;2.10;;;;;;;;;;5051864;28;20032;-62
2023/07/07 10:56:46;;;;;;;6.72;2.53;;;;;;;;;;5052850;28;20087;-64
2023/07/07 10:59:27;;;;;;;4.38;2.13;;;;;;;;;;5053384;28;20061;-63
2023/07/07 11:01:52;;;;;;;4.85;2.28;;;;;;;;;;5052544;28;20413;-63
2023/07/07 11:04:37;;;;;;;5.65;2.30;;;;;;;;;;5054976;28;20029;-62
2023/07/07 11:07:17;;;;;;;5.32;2.30;;;;;;;;;;5052971;28;20079;-62
2023/07/07 11:10:00;;;;;;;3.50;2.50;;;;;;;;;;5051638;28;20037;-63
2023/07/07 11:12:31;;;;;;;3.58;2.03;;;;;;;;;;5053471;28;20079;-62
2023/07/07 11:15:27;;;;;;;4.93;2.40;;;;;;;;;;5052774;28;20709;-62
2023/07/07 11:18:11;;;;;;;3.97;2.20;;;;;;;;;;5052044;28;20040;-62
2023/07/07 11:20:44;;;;;;;3.60;2.20;;;;;;;;;;5052135;28;20044;-64
2023/07/07 11:23:12;;;;;;;3.85;2.20;;;;;;;;;;5052104;28;20036;-63
2023/07/07 11:26:01;;;;;;;3.45;2.10;;;;;;;;;;5052336;28;20044;-64
2023/07/07 11:28:37;;;;;;;4.55;2.10;;;;;;;;;;5042915;28;20040;-62
2023/07/07 11:31:38;;;;;;;6.03;2.20;;;;;;;;;;5052749;28;20068;-64
2023/07/07 11:34:18;;;;;;;5.38;2.47;;;;;;;;;;5068773;28;20032;-62
2023/07/07 11:36:59;;;;;;;3.88;2.30;;;;;;;;;;5060551;28;20067;-64
2023/07/07 11:39:43;;;;;;;6.63;2.10;;;;;;;;;;5051641;28;20063;-63
2023/07/07 11:42:27;;;;;;;4.50;2.20;;;;;;;;;;5055726;28;20095;-62
2023/07/07 11:45:28;;;;;;;6.57;2.17;;;;;;;;;;5036887;28;20473;-63
2023/07/07 11:48:17;;;;;;;4.85;2.10;;;;;;;;;;5051592;28;20045;-62
2023/07/07 11:51:07;;;;;;;5.90;2.10;;;;;;;;;;5051892;28;20052;-62
2023/07/07 11:53:45;;;;;;;4.28;2.17;;;;;;;;;;5051048;28;20460;-62
2023/07/07 11:56:37;;;;;;;9.20;2.30;;;;;;;;;;5060353;28;20032;-63
2023/07/07 11:59:10;;;;;;;5.80;2.30;;;;;;;;;;5059799;28;20116;-63
2023/07/07 12:01:44;;;;;;;4.03;2.28;;;;;;;;;;5052428;28;20032;-64
2023/07/07 12:04:33;;;;;;;5.70;2.10;;;;;;;;;;5064439;28;20139;-62
2023/07/07 12:07:16;;;;;;;2.50;2.00;;;;;;;;;;5051536;28;20041;-64
2023/07/07 12:09:54;;;;;;;4.28;2.30;;;;;;;;;;5051548;28;20041;-64
2023/07/07 12:12:36;;;;;;;3.03;2.00;;;;;;;;;;5052454;28;20072;-65
2023/07/07 12:15:15;;;;;;;3.78;2.22;;;;;;;;;;5051813;28;20075;-63
2023/07/07 12:17:48;;;;;;;4.50;2.20;;;;;;;;;;5050205;28;20035;-64
2023/07/07 12:20:21;;;;;;;5.20;2.30;;;;;;;;;;5057247;28;20037;-63
2023/07/07 12:22:47;;;;;;;4.93;2.10;;;;;;;;;;5051305;28;20033;-64
2023/07/07 12:25:23;;;;;;;3.03;1.98;;;;;;;;;;5052097;28;20033;-64
2023/07/07 12:27:51;;;;;;;5.00;2.22;;;;;;;;;;5050961;28;20029;-64
2023/07/07 12:30:21;;;;;;;3.83;1.85;;;;;;;;;;5051961;28;20030;-64
2023/07/07 12:32:47;;;;;;;3.90;2.00;;;;;;;;;;5063818;28;20029;-64
2023/07/07 12:35:15;;;;;;;3.15;2.00;;;;;;;;;;5037779;28;20036;-64
2023/07/07 12:37:41;;;;;;;4.90;2.25;;;;;;;;;;5050917;28;20041;-64
2023/07/07 12:40:09;;;;;;;3.50;2.05;;;;;;;;;;5052007;28;20036;-63
2023/07/07 12:42:37;;;;;;;4.13;2.10;;;;;;;;;;5068697;28;20044;-63
2023/07/07 12:45:31;;;;;;;3.25;2.05;;;;;;;;;;5068212;28;20082;-64
2023/07/07 12:48:05;;;;;;;3.67;2.08;;;;;;;;;;5050694;28;20039;-64
2023/07/07 12:50:36;;;;;;;4.50;2.10;;;;;;;;;;5050769;28;20032;-64
2023/07/07 12:53:05;;;;;;;4.10;2.10;;;;;;;;;;5051232;28;20120;-65
2023/07/07 12:55:37;;;;;;;3.75;2.10;;;;;;;;;;5051778;28;20025;-64
2023/07/07 12:58:06;;;;;;;4.45;2.00;;;;;;;;;;5057930;28;20044;-64
2023/07/07 13:00:32;;;;;;;2.95;2.00;;;;;;;;;;5064099;28;20409;-64
2023/07/07 13:03:13;;;;;;;2.85;1.90;;;;;;;;;;5049587;28;20025;-65
2023/07/07 13:05:49;;;;;;;4.30;1.98;;;;;;;;;;5038750;28;20059;-66
2023/07/07 13:08:38;;;;;;;5.05;2.00;;;;;;;;;;5054710;28;20032;-63
2023/07/07 13:11:29;;;;;;;3.43;2.03;;;;;;;;;;5063566;28;20119;-63
2023/07/07 13:13:55;;;;;;;6.00;1.90;;;;;;;;;;5074577;28;20043;-64
2023/07/07 13:16:22;;;;;;;3.60;1.90;;;;;;;;;;5076998;28;20474;-61
2023/07/07 13:18:48;;;;;;;2.67;2.05;;;;;;;;;;5080096;28;20029;-62
2023/07/07 13:21:14;;;;;;;3.60;2.10;;;;;;;;;;5075992;28;20037;-61
2023/07/07 13:23:44;;;;;;;6.07;2.00;;;;;;;;;;5069451;28;20104;-62
2023/07/07 13:26:28;;;;;;;2.85;2.05;;;;;;;;;;5059055;28;20082;-62
2023/07/07 13:29:01;;;;;;;4.78;2.17;;;;;;;;;;5061675;28;20048;-61
2023/07/07 13:31:27;;;;;;;2.78;1.90;;;;;;;;;;5072417;28;20032;-61
2023/07/07 13:33:53;;;;;;;2.80;1.85;;;;;;;;;;5054576;28;20101;-63
2023/07/07 13:36:19;;;;;;;3.22;2.10;;;;;;;;;;5071506;28;20077;-62
2023/07/07 13:38:47;;;;;;;3.58;2.00;;;;;;;;;;5073958;28;20040;-63
2023/07/07 13:41:14;;;;;;;3.42;2.00;;;;;;;;;;5057921;28;20026;-61
2023/07/07 13:43:42;;;;;;;5.63;2.40;;;;;;;;;;5034597;28;20113;-63
2023/07/07 13:46:23;;;;;;;3.63;2.10;;;;;;;;;;5056004;28;20070;-61
2023/07/07 13:49:12;;;;;;;4.65;1.92;;;;;;;;;;5073771;28;20421;-61
2023/07/07 13:51:40;;;;;;;2.80;1.90;;;;;;;;;;5075336;28;20029;-61
2023/07/07 13:54:10;;;;;;;4.33;2.00;;;;;;;;;;5074506;28;20376;-61
2023/07/07 13:56:40;;;;;;;4.03;2.00;;;;;;;;;;5074611;28;20020;-62
2023/07/07 13:59:14;;;;;;;3.33;2.10;;;;;;;;;;5058751;28;20111;-61
2023/07/07 14:01:42;;;;;;;3.15;1.98;;;;;;;;;;5054619;28;20032;-64
2023/07/07 14:04:14;;;;;;;5.32;2.00;;;;;;;;;;5054621;28;20033;-63
2023/07/07 14:06:40;;;;;;;5.93;2.20;;;;;;;;;;5054588;28;20029;-63
2023/07/07 14:09:22;;;;;;;3.90;2.10;;;;;;;;;;5069177;28;20055;-62
2023/07/07 14:11:53;;;;;;;2.45;1.80;;;;;;;;;;5073212;28;20362;-63
2023/07/07 14:14:23;;;;;;;5.65;2.20;;;;;;;;;;5064729;28;20064;-63
2023/07/07 14:16:59;;;;;;;3.42;1.83;;;;;;;;;;5053130;28;20037;-63
2023/07/07 14:19:32;;;;;;;3.08;2.05;;;;;;;;;;5053853;28;20036;-63
2023/07/07 14:21:58;;;;;;;2.67;1.80;;;;;;;;;;5055304;28;20029;-63
2023/07/07 14:24:30;;;;;;;3.97;1.90;;;;;;;;;;5074385;28;20039;-62
2023/07/07 14:26:56;;;;;;;4.28;2.03;;;;;;;;;;5066658;28;20036;-62
2023/07/07 14:29:43;;;;;;;3.40;2.00;;;;;;;;;;5072769;28;20040;-61
2023/07/07 14:32:20;;;;;;;3.05;2.08;;;;;;;;;;5060624;28;20061;-62
2023/07/07 14:34:51;;;;;;;4.03;1.90;;;;;;;;;;5033778;28;20119;-62
2023/07/07 14:37:42;;;;;;;3.45;2.00;;;;;;;;;;5034270;28;20031;-63
2023/07/07 14:40:33;;;;;;;4.35;1.98;;;;;;;;;;5035108;28;20041;-62
2023/07/07 14:43:16;;;;;;;3.75;2.20;;;;;;;;;;5049179;28;20072;-61
2023/07/07 14:45:42;;;;;;;3.15;2.00;;;;;;;;;;5053831;28;20115;-64
2023/07/07 14:48:26;;;;;;;2.33;1.83;;;;;;;;;;5038693;28;20120;-63
2023/07/07 14:50:52;;;;;;;2.65;2.00;;;;;;;;;;5059817;28;20039;-63
2023/07/07 14:53:21;;;;;;;5.45;2.00;;;;;;;;;;5073900;28;20041;-61
2023/07/07 14:55:48;;;;;;;3.00;1.92;;;;;;;;;;5062249;28;20025;-63
2023/07/07 14:58:18;;;;;;;5.85;2.08;;;;;;;;;;5053560;28;20053;-61
2023/07/07 15:00:44;;;;;;;2.75;1.85;;;;;;;;;;5053422;28;20120;-62
2023/07/07 15:03:34;;;;;;;3.97;2.00;;;;;;;;;;5052864;28;20040;-61